createdAt,value
2018-09-06T00:02:11.383Z,89.15
2018-09-06T00:04:40.703Z,89.34
2018-09-06T00:07:10.019Z,89.45
2018-09-06T00:09:39.319Z,89.76
2018-09-06T00:12:08.612Z,89.93
2018-09-06T00:14:37.910Z,90.67
2018-09-06T00:17:07.239Z,91.79
2018-09-06T00:19:36.659Z,91.25
2018-09-06T00:22:05.958Z,91.55
2018-09-06T00:24:35.232Z,91.91
2018-09-06T00:27:04.568Z,92.45
2018-09-06T00:29:33.889Z,92.02
2018-09-06T00:32:03.305Z,91.81
2018-09-06T00:34:32.593Z,91.78
2018-09-06T00:37:01.966Z,92.28
2018-09-06T00:39:31.343Z,92.21
2018-09-06T00:42:00.702Z,92.53
2018-09-06T00:44:30.075Z,92.75
2018-09-06T00:46:59.582Z,93.06
2018-09-06T00:49:28.922Z,92.57
2018-09-06T00:51:58.338Z,91.42
2018-09-06T00:54:27.710Z,91.26
2018-09-06T00:56:57.109Z,91.73
2018-09-06T00:59:26.411Z,92.53
2018-09-06T01:01:56.543Z,92.24
2018-09-06T01:04:25.995Z,93.00
2018-09-06T01:06:55.325Z,93.10
2018-09-06T01:09:24.686Z,93.71
2018-09-06T01:11:54.015Z,93.89
2018-09-06T01:14:23.377Z,94.54
2018-09-06T01:16:52.730Z,95.36
2018-09-06T01:19:22.134Z,95.74
2018-09-06T01:21:51.537Z,95.32
2018-09-06T01:24:21.089Z,95.17
2018-09-06T01:26:50.426Z,95.02
2018-09-06T01:29:19.855Z,94.85
2018-09-06T01:31:49.233Z,94.66
2018-09-06T01:34:18.958Z,94.71
2018-09-06T01:36:48.512Z,94.12
2018-09-06T01:39:18.900Z,94.43
2018-09-06T01:41:48.242Z,94.46
2018-09-06T01:44:17.593Z,94.37
2018-09-06T01:46:47.002Z,95.01
2018-09-06T01:49:16.333Z,94.95
2018-09-06T01:51:45.788Z,95.37
2018-09-06T01:54:15.208Z,95.00
2018-09-06T01:56:44.549Z,94.63
2018-09-06T01:59:14.858Z,94.07
2018-09-06T02:01:44.272Z,93.69
2018-09-06T02:04:13.608Z,94.52
2018-09-06T02:06:43.007Z,93.99
2018-09-06T02:09:12.422Z,94.62
2018-09-06T02:11:42.269Z,94.37
2018-09-06T02:14:11.631Z,94.41
2018-09-06T02:16:40.941Z,94.98
2018-09-06T02:19:10.289Z,95.20
2018-09-06T02:21:39.674Z,95.43
2018-09-06T02:24:09.002Z,95.86
2018-09-06T02:26:38.449Z,96.06
2018-09-06T02:29:07.844Z,96.65
2018-09-06T02:31:37.248Z,97.24
2018-09-06T02:34:07.146Z,97.38
2018-09-06T02:36:36.568Z,97.64
2018-09-06T02:39:08.747Z,98.24
2018-09-06T02:41:38.110Z,98.23
2018-09-06T02:44:08.001Z,97.84
2018-09-06T02:46:37.359Z,98.09
2018-09-06T02:49:06.669Z,98.30
2018-09-06T02:51:36.057Z,98.45
2018-09-06T02:54:05.435Z,98.18
2018-09-06T02:56:34.846Z,98.68
2018-09-06T02:59:04.228Z,99.20
2018-09-06T03:01:33.585Z,98.75
2018-09-06T03:04:03.205Z,99.33
2018-09-06T03:06:32.556Z,100.00
2018-09-06T03:09:01.941Z,99.75
2018-09-06T03:11:36.524Z,99.41
2018-09-06T03:14:05.981Z,99.82
2018-09-06T03:16:35.941Z,100.00
2018-09-06T03:19:05.409Z,100.00
2018-09-06T03:21:34.819Z,100.00
2018-09-06T03:24:04.138Z,99.94
2018-09-06T03:26:33.443Z,99.64
2018-09-06T03:29:02.852Z,99.92
2018-09-06T03:31:32.168Z,100.00
2018-09-06T03:34:01.442Z,99.63
2018-09-06T03:36:31.580Z,99.72
2018-09-06T03:39:00.944Z,100.00
2018-09-06T03:41:30.908Z,100.00
2018-09-06T03:44:00.262Z,100.00
2018-09-06T03:46:29.862Z,100.00
2018-09-06T03:48:59.206Z,100.00
2018-09-06T03:51:28.529Z,100.00
2018-09-06T03:53:57.913Z,100.00
2018-09-06T03:56:27.253Z,100.00
2018-09-06T03:58:56.590Z,99.89
2018-09-06T04:01:25.908Z,99.73
2018-09-06T04:03:55.280Z,99.92
2018-09-06T04:06:24.627Z,100.00
2018-09-06T04:08:53.965Z,100.00
2018-09-06T04:11:23.261Z,100.00
2018-09-06T04:13:52.630Z,100.00
2018-09-06T04:16:21.990Z,100.00
2018-09-06T04:18:51.373Z,100.00
2018-09-06T04:21:20.769Z,99.89
2018-09-06T04:23:50.137Z,100.00
2018-09-06T04:26:19.561Z,100.00
2018-09-06T04:28:48.935Z,100.00
2018-09-06T04:31:18.307Z,100.00
2018-09-06T04:33:47.650Z,100.00
2018-09-06T04:36:17.079Z,100.00
2018-09-06T04:38:46.444Z,100.00
2018-09-06T04:41:15.822Z,100.00
2018-09-06T04:43:45.199Z,100.00
2018-09-06T04:46:14.752Z,100.00
2018-09-06T04:48:44.134Z,100.00
2018-09-06T04:51:13.584Z,100.00
2018-09-06T04:53:42.932Z,100.00
2018-09-06T04:56:12.349Z,100.00
2018-09-06T04:58:41.746Z,100.00
2018-09-06T05:01:11.064Z,100.00
2018-09-06T05:03:40.367Z,100.00
2018-09-06T05:06:09.843Z,100.00
2018-09-06T05:08:39.418Z,100.00
2018-09-06T05:11:08.848Z,100.00
2018-09-06T05:13:38.775Z,100.00
2018-09-06T05:16:08.187Z,100.00
2018-09-06T05:18:37.790Z,100.00
2018-09-06T05:21:07.077Z,100.00
2018-09-06T05:23:36.459Z,100.00
2018-09-06T05:26:06.221Z,100.00
2018-09-06T05:28:35.626Z,99.83
2018-09-06T05:31:05.023Z,99.72
2018-09-06T05:33:34.704Z,99.81
2018-09-06T05:36:04.255Z,99.83
2018-09-06T05:38:33.638Z,100.00
2018-09-06T05:41:03.017Z,100.00
2018-09-06T05:43:32.416Z,100.00
2018-09-06T05:46:01.942Z,100.00
2018-09-06T05:48:31.419Z,100.00
2018-09-06T05:51:00.893Z,99.70
2018-09-06T05:53:30.318Z,99.75
2018-09-06T05:55:59.773Z,99.94
2018-09-06T05:58:29.204Z,99.74
2018-09-06T06:00:58.775Z,99.37
2018-09-06T06:03:28.383Z,98.70
2018-09-06T06:05:57.751Z,98.77
2018-09-06T06:08:38.547Z,98.92
2018-09-06T06:11:08.394Z,99.13
2018-09-06T06:13:37.938Z,99.26
2018-09-06T06:16:07.590Z,99.30
2018-09-06T06:18:37.157Z,99.91
2018-09-06T06:21:06.597Z,99.64
2018-09-06T06:23:36.238Z,98.64
2018-09-06T06:26:05.804Z,97.45
2018-09-06T06:28:35.202Z,96.45
2018-09-06T06:31:04.688Z,95.73
2018-09-06T06:33:34.178Z,94.79
2018-09-06T06:36:03.800Z,93.43
2018-09-06T06:38:33.321Z,92.74
2018-09-06T06:41:02.950Z,91.77
2018-09-06T06:43:32.518Z,89.49
2018-09-06T06:46:01.975Z,88.09
2018-09-06T06:48:31.452Z,86.80
2018-09-06T06:51:01.071Z,87.36
2018-09-06T06:53:30.616Z,86.17
2018-09-06T06:56:00.144Z,85.45
2018-09-06T06:58:29.628Z,84.57
2018-09-06T07:00:59.222Z,84.06
2018-09-06T07:03:28.790Z,82.43
2018-09-06T07:05:58.290Z,83.92
2018-09-06T07:08:27.742Z,82.53
2018-09-06T07:10:58.174Z,81.42
2018-09-06T07:13:27.667Z,79.73
2018-09-06T07:15:57.139Z,79.23
2018-09-06T07:18:26.812Z,78.48
2018-09-06T07:20:56.274Z,77.96
2018-09-06T07:23:25.762Z,77.93
2018-09-06T07:25:55.544Z,78.07
2018-09-06T07:28:25.196Z,78.04
2018-09-06T07:30:54.726Z,77.27
2018-09-06T07:33:24.202Z,75.74
2018-09-06T07:35:53.669Z,75.79
2018-09-06T07:38:23.287Z,75.68
2018-09-06T07:40:52.669Z,76.26
2018-09-06T07:43:22.150Z,75.12
2018-09-06T07:45:51.968Z,74.56
2018-09-06T07:48:21.402Z,75.21
2018-09-06T07:50:51.315Z,74.58
2018-09-06T07:53:24.311Z,73.93
2018-09-06T07:55:54.355Z,74.21
2018-09-06T07:58:23.940Z,72.91
2018-09-06T08:00:53.753Z,72.17
2018-09-06T08:03:23.587Z,72.17
2018-09-06T08:05:53.348Z,70.40
2018-09-06T08:08:22.788Z,69.45
2018-09-06T08:10:52.586Z,70.16
2018-09-06T08:13:22.033Z,69.22
2018-09-06T08:15:51.517Z,66.79
2018-09-06T08:18:20.940Z,65.64
2018-09-06T08:20:50.424Z,64.36
2018-09-06T08:23:19.920Z,64.81
2018-09-06T08:25:49.328Z,65.18
2018-09-06T08:28:18.792Z,64.08
2018-09-06T08:30:48.417Z,64.56
2018-09-06T08:33:17.767Z,63.47
2018-09-06T08:35:47.651Z,62.53
2018-09-06T08:38:17.049Z,62.18
2018-09-06T08:40:46.477Z,61.73
2018-09-06T08:43:15.985Z,60.88
2018-09-06T08:45:46.531Z,59.98
2018-09-06T08:48:16.159Z,58.51
2018-09-06T08:50:45.692Z,58.78
2018-09-06T08:53:15.169Z,58.60
2018-09-06T08:55:44.741Z,58.34
2018-09-06T08:58:14.397Z,57.78
2018-09-06T09:00:49.253Z,58.07
2018-09-06T09:03:19.156Z,57.21
2018-09-06T09:05:48.944Z,57.86
2018-09-06T09:08:18.420Z,57.23
2018-09-06T09:10:47.986Z,57.46
2018-09-06T09:13:18.396Z,56.47
2018-09-06T09:15:47.978Z,57.35
2018-09-06T09:18:17.611Z,56.55
2018-09-06T09:20:47.246Z,56.45
2018-09-06T09:23:16.744Z,54.99
2018-09-06T09:25:46.375Z,55.15
2018-09-06T09:28:15.873Z,55.98
2018-09-06T09:30:45.705Z,55.57
2018-09-06T09:33:14.943Z,55.33
2018-09-06T09:35:44.873Z,55.04
2018-09-06T09:38:14.312Z,53.31
2018-09-06T09:40:43.709Z,54.14
2018-09-06T09:43:13.169Z,53.15
2018-09-06T09:45:42.907Z,52.62
2018-09-06T09:48:12.575Z,53.61
2018-09-06T09:53:10.382Z,51.49
2018-09-06T09:55:39.888Z,50.52
2018-09-06T09:58:09.455Z,50.30
2018-09-06T10:00:40.720Z,50.26
2018-09-06T10:03:15.056Z,50.91
2018-09-06T10:05:46.371Z,50.36
2018-09-06T10:08:20.993Z,49.95
2018-09-06T10:10:50.476Z,50.60
2018-09-06T10:13:19.906Z,50.23
2018-09-06T10:15:50.265Z,50.50
2018-09-06T10:18:19.817Z,49.91
2018-09-06T10:20:49.081Z,49.00
2018-09-06T10:23:18.644Z,49.38
2018-09-06T10:25:47.984Z,49.55
2018-09-06T10:28:17.440Z,49.02
2018-09-06T10:30:46.850Z,50.42
2018-09-06T10:33:16.409Z,51.16
2018-09-06T10:35:45.965Z,51.17
2018-09-06T10:38:15.608Z,53.27
2018-09-06T10:40:45.232Z,52.59
2018-09-06T10:43:15.056Z,52.85
2018-09-06T10:45:44.598Z,53.52
2018-09-06T10:48:14.159Z,55.17
2018-09-06T10:50:43.612Z,57.33
2018-09-06T10:53:12.941Z,62.66
2018-09-06T10:55:42.509Z,70.11
2018-09-06T10:58:12.915Z,76.17
2018-09-06T11:00:42.338Z,87.75
2018-09-06T11:03:12.206Z,89.15
2018-09-06T11:05:42.117Z,84.09
2018-09-06T11:08:12.160Z,76.57
2018-09-06T11:10:41.844Z,86.16
2018-09-06T11:13:11.728Z,88.20
2018-09-06T11:15:41.332Z,95.61
2018-09-06T11:18:11.088Z,94.99
2018-09-06T11:20:41.428Z,98.11
2018-09-06T11:23:11.103Z,92.59
2018-09-06T11:25:40.609Z,88.62
2018-09-06T11:28:10.339Z,86.36
2018-09-06T11:30:40.757Z,85.34
2018-09-06T11:33:10.414Z,81.76
2018-09-06T11:35:40.102Z,84.72
2018-09-06T11:38:09.751Z,83.10
2018-09-06T11:40:39.360Z,84.88
2018-09-06T11:43:08.971Z,85.44
2018-09-06T11:45:38.558Z,85.58
2018-09-06T11:48:08.117Z,84.67
2018-09-06T11:50:37.677Z,89.20
2018-09-06T11:53:07.220Z,89.75
2018-09-06T11:55:36.773Z,92.05
2018-09-06T11:58:06.236Z,92.24
2018-09-06T12:00:38.434Z,94.68
2018-09-06T12:03:08.332Z,94.14
2018-09-06T12:05:37.932Z,91.07
2018-09-06T12:08:07.656Z,93.30
2018-09-06T12:10:37.958Z,93.81
2018-09-06T12:13:07.396Z,94.32
2018-09-06T12:15:37.133Z,93.05
2018-09-06T12:18:06.790Z,94.36
2018-09-06T12:20:36.319Z,91.99
2018-09-06T12:23:06.185Z,93.34
2018-09-06T12:25:35.699Z,92.45
2018-09-06T12:28:05.410Z,89.81
2018-09-06T12:30:34.969Z,92.81
2018-09-06T12:33:04.387Z,91.26
2018-09-06T12:35:33.940Z,91.90
2018-09-06T12:38:03.787Z,88.38
2018-09-06T12:40:33.442Z,85.28
2018-09-06T12:43:02.960Z,80.65
2018-09-06T12:45:32.577Z,82.42
2018-09-06T12:48:02.118Z,83.82
2018-09-06T12:50:31.800Z,81.32
2018-09-06T12:53:01.907Z,81.46
2018-09-06T12:55:31.590Z,80.35
2018-09-06T12:58:01.215Z,83.47
2018-09-06T13:00:30.754Z,78.45
2018-09-06T13:03:00.479Z,77.98
2018-09-06T13:05:30.102Z,77.15
2018-09-06T13:07:59.868Z,71.07
2018-09-06T13:10:29.929Z,65.04
2018-09-06T13:12:59.371Z,61.79
2018-09-06T13:15:28.948Z,62.17
2018-09-06T13:17:58.569Z,59.98
2018-09-06T13:20:28.238Z,59.98
2018-09-06T13:22:57.868Z,62.65
2018-09-06T13:25:28.035Z,65.59
2018-09-06T13:27:57.579Z,64.07
2018-09-06T13:30:27.275Z,63.37
2018-09-06T13:32:57.790Z,60.82
2018-09-06T13:35:27.379Z,63.62
2018-09-06T13:37:56.968Z,63.58
2018-09-06T13:40:27.759Z,65.38
2018-09-06T13:42:57.288Z,62.37
2018-09-06T13:45:26.762Z,64.13
2018-09-06T13:47:56.266Z,64.69
2018-09-06T13:50:25.817Z,64.15
2018-09-06T13:52:55.271Z,61.35
2018-09-06T13:55:24.991Z,60.18
2018-09-06T13:57:54.844Z,58.78
2018-09-06T14:00:24.454Z,55.55
2018-09-06T14:02:53.930Z,53.50
2018-09-06T14:05:24.249Z,56.34
2018-09-06T14:07:53.686Z,56.53
2018-09-06T14:10:23.402Z,57.47
2018-09-06T14:12:52.851Z,57.56
2018-09-06T14:15:22.619Z,59.01
2018-09-06T14:17:52.235Z,56.68
2018-09-06T14:20:21.734Z,57.01
2018-09-06T14:22:51.442Z,55.39
2018-09-06T14:25:21.516Z,55.84
2018-09-06T14:27:51.057Z,56.85
2018-09-06T14:30:20.759Z,58.53
2018-09-06T14:32:51.829Z,55.27
2018-09-06T14:35:21.410Z,56.61
2018-09-06T14:37:51.852Z,55.76
2018-09-06T14:40:21.507Z,56.49
2018-09-06T14:42:52.042Z,53.59
2018-09-06T14:45:21.580Z,54.77
2018-09-06T14:47:51.116Z,55.29
2018-09-06T14:50:20.924Z,60.88
2018-09-06T14:52:50.929Z,62.83
2018-09-06T14:55:21.350Z,65.75
2018-09-06T14:57:51.653Z,68.36
2018-09-06T15:00:21.234Z,69.69
2018-09-06T15:02:51.392Z,70.20
2018-09-06T15:05:31.706Z,73.87
2018-09-06T15:08:01.762Z,72.92
2018-09-06T15:10:32.051Z,71.54
2018-09-06T15:13:04.164Z,71.87
2018-09-06T15:15:46.749Z,70.88
2018-09-06T15:18:16.759Z,71.75
2018-09-06T15:20:46.465Z,73.34
2018-09-06T15:23:16.312Z,75.18
2018-09-06T15:25:46.178Z,75.16
2018-09-06T15:28:17.509Z,74.35
2018-09-06T15:30:50.967Z,72.33
2018-09-06T15:33:21.030Z,70.32
2018-09-06T15:35:51.211Z,70.92
2018-09-06T15:38:21.003Z,73.80
2018-09-06T15:40:51.759Z,75.38
2018-09-06T15:43:21.186Z,77.26
2018-09-06T15:45:50.731Z,78.41
2018-09-06T15:48:20.301Z,80.13
2018-09-06T15:50:49.775Z,81.13
2018-09-06T15:53:19.257Z,83.82
2018-09-06T15:55:48.823Z,88.37
2018-09-06T15:58:18.436Z,89.12
2018-09-06T16:00:47.932Z,90.69
2018-09-06T16:03:17.840Z,92.74
2018-09-06T16:05:47.475Z,94.68
2018-09-06T16:08:18.145Z,96.21
2018-09-06T16:10:48.023Z,97.62
2018-09-06T16:13:18.703Z,99.07
2018-09-06T16:15:51.169Z,100.00
2018-09-06T16:18:21.262Z,100.00
2018-09-06T16:20:51.972Z,100.00
2018-09-06T16:23:28.244Z,100.00
2018-09-06T16:25:58.037Z,100.00
2018-09-06T16:28:27.891Z,100.00
2018-09-06T16:30:58.912Z,100.00
2018-09-06T16:33:28.539Z,100.00
2018-09-06T16:35:58.340Z,100.00
2018-09-06T16:38:28.279Z,100.00
2018-09-06T16:40:58.233Z,100.00
2018-09-06T16:43:27.824Z,100.00
2018-09-06T16:45:57.939Z,100.00
2018-09-06T16:48:27.683Z,100.00
2018-09-06T16:50:57.594Z,100.00
2018-09-06T16:53:27.608Z,100.00
2018-09-06T16:55:57.420Z,100.00
2018-09-06T16:58:27.376Z,100.00
2018-09-06T17:00:57.467Z,100.00
2018-09-06T17:03:27.653Z,100.00
2018-09-06T17:05:57.936Z,100.00
2018-09-06T17:08:28.000Z,100.00
2018-09-06T17:10:57.809Z,100.00
2018-09-06T17:13:27.528Z,100.00
2018-09-06T17:15:57.543Z,100.00
2018-09-06T17:18:27.455Z,100.00
2018-09-06T17:20:59.336Z,100.00
2018-09-06T17:23:29.223Z,100.00
2018-09-06T17:25:59.146Z,100.00
2018-09-06T17:28:29.966Z,100.00
2018-09-06T17:30:59.752Z,100.00
2018-09-06T17:33:29.906Z,100.00
2018-09-06T17:35:59.820Z,100.00
2018-09-06T17:38:29.965Z,100.00
2018-09-06T17:41:00.021Z,100.00
2018-09-06T17:43:30.192Z,100.00
2018-09-06T17:46:01.243Z,100.00
2018-09-06T17:48:31.025Z,100.00
2018-09-06T17:51:01.020Z,100.00
2018-09-06T17:53:30.951Z,100.00
2018-09-06T17:56:00.587Z,100.00
2018-09-06T17:58:30.293Z,100.00
2018-09-06T18:01:37.231Z,100.00
2018-09-06T18:04:07.985Z,100.00
2018-09-06T18:06:38.425Z,100.00
2018-09-06T18:09:12.425Z,100.00
2018-09-06T18:11:42.978Z,100.00
2018-09-06T18:14:12.999Z,100.00
2018-09-06T18:16:43.356Z,100.00
2018-09-06T18:19:12.854Z,100.00
2018-09-06T18:21:44.632Z,100.00
2018-09-06T18:24:16.356Z,100.00
2018-09-06T18:26:48.512Z,100.00
2018-09-06T18:29:18.814Z,100.00
2018-09-06T18:31:49.682Z,100.00
2018-09-06T18:34:19.735Z,100.00
2018-09-06T18:36:53.941Z,100.00
2018-09-06T18:39:31.997Z,100.00
2018-09-06T18:42:04.777Z,100.00
2018-09-06T18:44:36.991Z,100.00
2018-09-06T18:47:07.144Z,100.00
2018-09-06T18:49:38.453Z,100.00
2018-09-06T18:52:08.381Z,100.00
2018-09-06T18:54:38.915Z,100.00
2018-09-06T18:57:08.993Z,100.00
2018-09-06T18:59:39.591Z,100.00
2018-09-06T19:02:09.868Z,100.00
2018-09-06T19:04:53.905Z,100.00
2018-09-06T19:07:24.281Z,100.00
2018-09-06T19:10:04.580Z,100.00
2018-09-06T19:12:34.964Z,100.00
2018-09-06T19:15:05.452Z,100.00
2018-09-06T19:17:35.344Z,100.00
2018-09-06T19:20:05.853Z,100.00
2018-09-06T19:22:35.777Z,100.00
2018-09-06T19:25:07.621Z,100.00
2018-09-06T19:27:55.882Z,100.00
2018-09-06T19:30:29.428Z,100.00
2018-09-06T19:33:00.408Z,100.00
2018-09-06T19:35:30.673Z,100.00
2018-09-06T19:38:01.994Z,100.00
2018-09-06T19:40:34.115Z,100.00
2018-09-06T19:43:06.818Z,100.00
2018-09-06T19:45:36.847Z,100.00
2018-09-06T19:48:07.080Z,100.00
2018-09-06T19:50:38.025Z,100.00
2018-09-06T19:53:08.969Z,100.00
2018-09-06T19:57:56.212Z,100.00
2018-09-06T20:00:26.690Z,100.00
2018-09-06T20:02:58.488Z,100.00
2018-09-06T20:05:28.516Z,100.00
2018-09-06T20:07:59.018Z,100.00
2018-09-06T20:10:29.046Z,100.00
2018-09-06T20:12:59.439Z,100.00
2018-09-06T20:15:29.407Z,100.00
2018-09-06T20:18:04.335Z,100.00
2018-09-06T20:20:35.027Z,100.00
2018-09-06T20:23:06.285Z,100.00
2018-09-06T20:25:36.365Z,100.00
2018-09-06T20:28:06.603Z,100.00
2018-09-06T20:30:37.690Z,100.00
2018-09-06T20:33:09.335Z,100.00
2018-09-06T20:35:39.047Z,100.00
2018-09-06T20:38:09.429Z,100.00
2018-09-06T20:40:39.332Z,100.00
2018-09-06T20:43:08.958Z,100.00
2018-09-06T20:45:38.593Z,100.00
2018-09-06T20:48:09.996Z,100.00
2018-09-06T20:50:39.531Z,100.00
2018-09-06T20:53:09.074Z,100.00
2018-09-06T20:55:38.640Z,100.00
2018-09-06T20:58:08.236Z,100.00
2018-09-06T21:00:37.722Z,100.00
2018-09-06T21:03:07.245Z,100.00
2018-09-06T21:05:36.660Z,100.00
2018-09-06T21:08:06.145Z,100.00
2018-09-06T21:10:35.753Z,100.00
2018-09-06T21:13:05.235Z,100.00
2018-09-06T21:15:34.780Z,100.00
2018-09-06T21:18:04.309Z,100.00
2018-09-06T21:20:33.765Z,100.00
2018-09-06T21:23:03.442Z,100.00
2018-09-06T21:25:33.054Z,100.00
2018-09-06T21:28:02.611Z,100.00
2018-09-06T21:30:32.203Z,100.00
2018-09-06T21:33:01.631Z,100.00
2018-09-06T21:35:31.137Z,100.00
2018-09-06T21:38:01.258Z,100.00
2018-09-06T21:40:30.764Z,100.00
2018-09-06T21:43:00.713Z,100.00
2018-09-06T21:45:30.224Z,100.00
2018-09-06T21:48:00.572Z,100.00
2018-09-06T21:50:30.131Z,100.00
2018-09-06T21:52:59.875Z,100.00
2018-09-06T21:55:29.312Z,100.00
2018-09-06T21:57:58.760Z,100.00
2018-09-06T22:00:28.242Z,100.00
2018-09-06T22:03:02.758Z,100.00
2018-09-06T22:05:32.150Z,100.00
2018-09-06T22:08:02.643Z,100.00
2018-09-06T22:10:32.029Z,100.00
2018-09-06T22:13:02.376Z,100.00
2018-09-06T22:15:31.761Z,100.00
2018-09-06T22:18:01.654Z,100.00
2018-09-06T22:20:30.979Z,100.00
2018-09-06T22:23:00.262Z,100.00
2018-09-06T22:25:29.691Z,100.00
2018-09-06T22:27:59.000Z,100.00
2018-09-06T22:30:28.372Z,100.00
2018-09-06T22:32:57.646Z,100.00
2018-09-06T22:35:27.036Z,100.00
2018-09-06T22:37:56.334Z,100.00
2018-09-06T22:40:25.631Z,100.00
2018-09-06T22:42:54.933Z,100.00
2018-09-06T22:45:24.339Z,100.00
2018-09-06T22:47:53.643Z,100.00
2018-09-06T22:50:22.993Z,100.00
2018-09-06T22:52:52.334Z,100.00
2018-09-06T22:55:21.633Z,100.00
2018-09-06T22:57:50.976Z,100.00
2018-09-06T23:00:20.976Z,100.00
2018-09-06T23:02:55.481Z,100.00
2018-09-06T23:05:24.805Z,100.00
2018-09-06T23:07:54.106Z,100.00
2018-09-06T23:10:23.444Z,100.00
2018-09-06T23:12:52.764Z,100.00
2018-09-06T23:15:22.186Z,100.00
2018-09-06T23:17:51.545Z,100.00
2018-09-06T23:20:20.905Z,100.00
2018-09-06T23:22:50.192Z,100.00
2018-09-06T23:25:19.501Z,100.00
2018-09-06T23:27:48.862Z,100.00
2018-09-06T23:30:18.130Z,100.00
2018-09-06T23:32:47.493Z,100.00
2018-09-06T23:35:16.822Z,100.00
2018-09-06T23:37:46.109Z,100.00
2018-09-06T23:40:15.378Z,100.00
2018-09-06T23:42:44.718Z,100.00
2018-09-06T23:45:14.014Z,100.00
2018-09-06T23:47:43.499Z,100.00
2018-09-06T23:50:12.798Z,100.00
2018-09-06T23:52:42.122Z,100.00
2018-09-06T23:55:12.397Z,100.00
2018-09-06T23:57:41.763Z,100.00
